Terminal Aerodrome Forecast
Issued by NWS

Home | Current Version | Previous Version | Text Only | Print | Product List | Glossary On
Versions: 1 2 3 4 5 6 7 8 9 10 11 12 13 14 15 16 17
000
FTUS45 KFGZ 072340
TAFGCN
TAF
KGCN 072340Z 0800/0824 VRB06KT P6SM BKN100
      TEMPO 0800/0801 VRB12G25KT -TSRA BKN080CB
     FM080300 VRB03KT P6SM FEW120
     FM081600 23009KT P6SM SCT100=

USA.gov is the U.S. government's official web portal to all federal, state and local government web resources and services.